Time;durP1;ratioP1;P1;durP2;ratioP2;P2;SDS_P1;SDS_P2;PMS_P1;PMS_P2;Temp;Humidity;BMP_temperature;BMP_pressure;BME280_temperature;BME280_humidity;BME280_pressure;Samples;Min_cycle;Max_cycle;Signal;HPM_P1;HPM_P2
2021/06/17 00:01:24;;;;;;;15.02;13.32;;;;;;;21.70;60.14;100055.50;8660829;33;20630;-73
2021/06/17 00:06:29;;;;;;;13.85;12.45;;;;;;;21.67;60.05;100051.28;8660830;33;20191;-74
2021/06/17 00:11:33;;;;;;;14.30;12.07;;;;;;;21.70;60.41;100055.50;8661412;33;20267;-74
2021/06/17 00:16:36;;;;;;;14.13;12.52;;;;;;;21.78;60.18;100049.03;8659686;33;21505;-74
2021/06/17 00:21:41;;;;;;;14.75;12.13;;;;;;;21.71;59.92;100045.41;8660588;33;20121;-75
2021/06/17 00:26:44;;;;;;;13.68;12.23;;;;;;;21.64;60.19;100051.69;8660822;33;20188;-75
2021/06/17 00:31:48;;;;;;;17.23;13.00;;;;;;;21.62;60.47;100051.03;8709557;33;20609;-74
2021/06/17 00:36:52;;;;;;;14.25;12.75;;;;;;;21.55;60.65;100052.06;8717392;33;20179;-75
2021/06/17 00:41:55;;;;;;;15.52;12.80;;;;;;;21.48;60.80;100045.75;8707608;33;20149;-71
2021/06/17 00:46:59;;;;;;;15.25;12.02;;;;;;;21.47;60.90;100044.88;8686051;33;20286;-75
2021/06/17 00:52:07;;;;;;;15.77;13.55;;;;;;;21.42;60.73;100050.97;8662403;33;20678;-74
2021/06/17 00:57:11;;;;;;;15.50;12.57;;;;;;;21.37;60.90;100047.16;8685807;33;20145;-75
2021/06/17 01:02:14;;;;;;;14.82;13.07;;;;;;;21.38;60.76;100043.38;8689324;33;20214;-74
2021/06/17 01:07:30;;;;;;;18.38;13.50;;;;;;;21.35;60.95;100047.34;8716239;33;20707;-74
2021/06/17 01:12:46;;;;;;;15.35;13.68;;;;;;;21.26;61.16;100045.84;8717154;33;20492;-74
2021/06/17 01:32:03;;;;;;;18.15;14.02;;;;;;;21.01;61.86;100035.41;8715479;33;20193;-75
2021/06/17 01:37:10;;;;;;;17.50;13.10;;;;;;;20.97;62.37;100038.72;8715774;33;20211;-74
2021/06/17 01:42:15;;;;;;;16.95;13.43;;;;;;;20.90;62.22;100035.09;8716229;33;20140;-74
2021/06/17 01:47:20;;;;;;;15.48;13.40;;;;;;;20.82;62.63;100032.56;8715680;33;20604;-74
2021/06/17 01:52:26;;;;;;;15.63;13.63;;;;;;;20.76;62.88;100020.53;8715775;33;20187;-75
2021/06/17 01:57:30;;;;;;;16.25;14.23;;;;;;;20.68;62.83;100018.81;8714478;33;20140;-75
2021/06/17 02:02:36;;;;;;;16.40;13.77;;;;;;;20.63;63.12;100015.84;8715471;33;20613;-75
2021/06/17 02:07:43;;;;;;;18.65;13.77;;;;;;;20.61;63.23;100015.19;8715216;33;20355;-75
2021/06/17 02:12:50;;;;;;;15.23;13.60;;;;;;;20.60;63.51;100008.06;8715692;33;21043;-74
2021/06/17 02:17:57;;;;;;;16.63;14.30;;;;;;;20.60;63.38;99996.28;8715244;33;20578;-75
2021/06/17 02:23:04;;;;;;;15.77;13.80;;;;;;;20.54;63.49;99995.19;8715732;33;20176;-74
2021/06/17 02:28:14;;;;;;;18.02;13.77;;;;;;;20.50;63.40;99997.47;8714461;33;20227;-75
2021/06/17 02:33:21;;;;;;;17.35;14.20;;;;;;;20.49;63.91;100006.72;8715083;33;22971;-74
2021/06/17 02:38:30;;;;;;;17.05;15.20;;;;;;;20.48;63.54;100002.28;8714454;33;20183;-74
2021/06/17 02:43:36;;;;;;;17.73;15.15;;;;;;;20.51;63.60;100012.78;8714680;33;20233;-74
2021/06/17 02:48:41;;;;;;;11.85;10.57;;;;;;;20.51;63.68;100014.69;8714560;33;20440;-73
2021/06/17 02:53:44;;;;;;;18.35;14.00;;;;;;;20.54;63.51;100015.16;8719933;33;20187;-74
2021/06/17 02:59:03;;;;;;;16.42;13.25;;;;;;;20.51;63.47;100006.50;8723288;33;20325;-74
2021/06/17 03:04:15;;;;;;;15.43;13.05;;;;;;;20.44;63.53;100006.47;8720025;33;20905;-74
2021/06/17 03:09:26;;;;;;;17.55;13.93;;;;;;;20.37;64.15;100010.19;8720813;33;21048;-74
2021/06/17 03:14:36;;;;;;;15.30;13.63;;;;;;;20.40;63.77;100009.78;8720314;33;20183;-74
2021/06/17 03:19:42;;;;;;;15.93;13.57;;;;;;;20.36;64.46;100013.97;8720744;33;20179;-74
2021/06/17 03:24:50;;;;;;;14.88;13.48;;;;;;;20.29;64.38;100014.69;8723562;33;22058;-74
2021/06/17 03:29:55;;;;;;;19.63;14.73;;;;;;;20.24;64.75;100008.13;8718935;33;20239;-74
2021/06/17 03:35:02;;;;;;;16.55;13.45;;;;;;;20.22;64.93;100011.09;8719031;33;20193;-74
2021/06/17 03:40:07;;;;;;;18.88;14.25;;;;;;;20.27;64.67;100018.69;8718979;33;20143;-73
2021/06/17 03:45:13;;;;;;;17.83;14.90;;;;;;;20.32;64.60;100014.34;8719269;33;22291;-74
2021/06/17 03:50:23;;;;;;;17.77;15.32;;;;;;;20.41;64.60;100015.06;8719105;33;20498;-74
2021/06/17 03:55:28;;;;;;;18.77;15.10;;;;;;;20.32;64.94;100016.22;8717880;33;20814;-74
2021/06/17 04:00:32;;;;;;;17.23;14.20;;;;;;;20.43;64.62;100010.25;8717883;33;20707;-74
2021/06/17 04:05:38;;;;;;;18.63;15.52;;;;;;;20.42;64.81;100014.00;8717826;33;20243;-73
2021/06/17 04:10:43;;;;;;;19.17;15.07;;;;;;;20.45;64.81;100007.31;8719123;33;20152;-74
2021/06/17 04:15:48;;;;;;;15.10;13.60;;;;;;;20.52;64.71;100011.78;8717798;33;20319;-74
2021/06/17 04:20:55;;;;;;;16.95;14.68;;;;;;;20.61;64.58;100017.09;8718617;33;20783;-74
2021/06/17 04:26:01;;;;;;;17.02;15.23;;;;;;;20.66;64.38;100017.34;8717820;33;20219;-74
2021/06/17 04:31:05;;;;;;;16.63;14.90;;;;;;;20.67;64.42;100027.19;8717668;33;20675;-73
2021/06/17 04:36:12;;;;;;;17.75;14.57;;;;;;;20.77;64.18;100031.25;8717617;33;20187;-74
2021/06/17 04:41:15;;;;;;;17.25;15.45;;;;;;;20.85;64.09;100026.69;8718024;33;20233;-75
2021/06/17 04:46:21;;;;;;;19.30;15.05;;;;;;;20.89;63.87;100027.97;8717096;33;20144;-75
2021/06/17 04:51:29;;;;;;;16.27;13.80;;;;;;;21.01;63.62;100024.47;8717574;33;20148;-74
2021/06/17 04:56:32;;;;;;;17.92;15.30;;;;;;;21.13;63.86;100027.50;8716895;33;20194;-74
2021/06/17 05:01:35;;;;;;;19.13;15.13;;;;;;;21.27;63.58;100035.78;8718079;33;20685;-73
2021/06/17 05:06:41;;;;;;;18.92;15.27;;;;;;;21.39;63.18;100045.94;8716684;33;21155;-75
2021/06/17 05:11:44;;;;;;;17.55;14.35;;;;;;;21.41;62.75;100041.06;8716812;33;20132;-74
2021/06/17 05:16:48;;;;;;;17.20;14.27;;;;;;;21.49;63.20;100039.22;8716568;33;20243;-75
2021/06/17 05:21:52;;;;;;;20.88;14.95;;;;;;;21.63;62.98;100039.06;8716482;33;20179;-75
2021/06/17 05:26:56;;;;;;;16.98;14.68;;;;;;;21.72;62.56;100042.47;8716313;33;20957;-74
2021/06/17 05:31:59;;;;;;;16.90;14.30;;;;;;;21.81;62.68;100041.25;8715411;33;20185;-74
2021/06/17 05:37:04;;;;;;;17.35;15.07;;;;;;;21.97;62.55;100041.91;8715864;33;20184;-73
2021/06/17 05:42:09;;;;;;;16.90;14.63;;;;;;;22.10;61.96;100050.13;8716211;33;20412;-74
2021/06/17 05:47:13;;;;;;;18.48;13.57;;;;;;;22.27;61.94;100056.91;8646960;33;20192;-75
2021/06/17 05:52:17;;;;;;;16.30;14.60;;;;;;;22.36;61.74;100059.44;8657533;33;20245;-74
2021/06/17 05:57:20;;;;;;;16.25;14.40;;;;;;;22.40;60.62;100060.69;8658734;33;20736;-75
2021/06/17 06:02:24;;;;;;;15.35;13.70;;;;;;;22.61;61.28;100057.78;8658035;33;20180;-74
2021/06/17 06:07:28;;;;;;;18.35;13.75;;;;;;;22.76;60.72;100073.97;8657993;33;20212;-74
2021/06/17 06:12:31;;;;;;;16.17;13.60;;;;;;;22.90;60.66;100074.78;8673414;33;20156;-76
2021/06/17 06:17:35;;;;;;;17.25;13.35;;;;;;;23.06;59.16;100071.59;8659225;33;20184;-77
2021/06/17 06:22:39;;;;;;;15.90;13.85;;;;;;;23.20;59.38;100075.19;8657585;33;20227;-76
2021/06/17 06:27:42;;;;;;;16.15;13.70;;;;;;;23.37;58.79;100072.84;8657390;33;20274;-76
2021/06/17 06:32:46;;;;;;;16.27;13.55;;;;;;;23.54;58.29;100076.75;8657269;33;20176;-76
2021/06/17 06:37:51;;;;;;;15.63;14.05;;;;;;;23.70;58.00;100080.09;8657262;33;20270;-76
2021/06/17 06:42:54;;;;;;;15.15;13.55;;;;;;;23.93;57.74;100091.38;8720280;33;20939;-76
2021/06/17 06:47:58;;;;;;;14.10;12.68;;;;;;;24.11;57.64;100085.16;8723026;33;20218;-76
2021/06/17 06:53:03;;;;;;;13.77;12.35;;;;;;;24.35;55.97;100080.75;8715306;33;20673;-76
2021/06/17 06:58:06;;;;;;;14.18;12.23;;;;;;;24.47;56.03;100080.91;8714802;33;20219;-76
2021/06/17 07:03:09;;;;;;;15.35;12.25;;;;;;;24.81;56.03;100084.22;8714255;33;20226;-76
2021/06/17 07:10:07;;;;;;;14.82;12.05;;;;;;;25.21;56.09;100098.44;8948812;32;20539;-75
2021/06/17 07:15:12;;;;;;;13.98;11.73;;;;;;;25.32;54.60;100086.66;10449159;28;20228;-75
2021/06/17 07:20:15;;;;;;;14.70;12.20;;;;;;;25.48;55.03;100093.47;10381896;28;20234;-74
2021/06/17 07:25:20;;;;;;;13.60;12.20;;;;;;;25.60;53.82;100083.38;10375275;28;20236;-75
2021/06/17 07:30:24;;;;;;;15.63;11.65;;;;;;;25.80;53.68;100082.28;10372674;28;20231;-75
2021/06/17 07:35:27;;;;;;;12.88;10.98;;;;;;;26.20;52.91;100079.81;10379756;28;20874;-75
2021/06/17 07:40:32;;;;;;;17.35;11.57;;;;;;;26.46;52.10;100070.31;10393467;28;20244;-75
2021/06/17 07:45:35;;;;;;;12.40;10.60;;;;;;;26.88;51.96;100066.69;10383309;28;21528;-75
2021/06/17 07:50:40;;;;;;;12.15;10.93;;;;;;;27.10;49.11;100067.75;10353225;28;20237;-75
2021/06/17 07:55:44;;;;;;;12.27;10.00;;;;;;;27.34;48.74;100070.44;10345705;28;20240;-75
2021/06/17 08:00:47;;;;;;;12.00;10.60;;;;;;;27.62;48.75;100061.44;10346530;28;20619;-76
2021/06/17 08:05:52;;;;;;;13.48;10.13;;;;;;;27.93;47.50;100059.25;10346073;28;20232;-74
2021/06/17 08:10:56;;;;;;;12.25;9.70;;;;;;;27.99;46.89;100052.78;10349259;28;20256;-75
2021/06/17 08:15:59;;;;;;;10.98;9.98;;;;;;;28.73;46.62;100055.44;10350108;28;20236;-75
2021/06/17 08:21:02;;;;;;;11.40;9.90;;;;;;;30.04;43.70;100056.59;10322473;28;20255;-74
2021/06/17 08:26:07;;;;;;;12.02;9.75;;;;;;;31.19;41.60;100044.25;10329860;28;20689;-75
2021/06/17 08:31:10;;;;;;;10.45;9.43;;;;;;;31.99;40.43;100048.41;10319586;28;20233;-76
2021/06/17 08:36:15;;;;;;;12.13;9.98;;;;;;;31.23;41.38;100048.13;10331921;28;20244;-75
2021/06/17 08:41:19;;;;;;;11.98;9.93;;;;;;;30.77;42.03;100033.97;10328107;28;20236;-75
2021/06/17 08:46:28;;;;;;;12.10;10.48;;;;;;;30.44;43.32;100019.31;10347505;28;20617;-75
2021/06/17 08:51:33;;;;;;;11.32;9.98;;;;;;;30.35;43.27;100021.72;10356058;28;20619;-75
2021/06/17 08:56:42;;;;;;;10.00;8.98;;;;;;;30.48;42.05;100023.22;10350574;28;20269;-74
2021/06/17 09:01:54;;;;;;;10.48;9.23;;;;;;;30.66;42.14;100022.84;10342355;28;20619;-74
2021/06/17 09:07:09;;;;;;;9.95;9.05;;;;;;;31.11;40.63;100026.97;10319852;28;20795;-74
2021/06/17 09:12:17;;;;;;;9.57;8.57;;;;;;;31.19;39.31;100025.66;10287430;28;20244;-75
2021/06/17 09:17:37;;;;;;;10.18;9.15;;;;;;;31.47;40.23;100031.88;10275078;28;20363;-74
2021/06/17 09:22:41;;;;;;;10.02;8.43;;;;;;;31.58;39.93;100023.31;10278182;28;20241;-75
2021/06/17 09:27:47;;;;;;;8.82;8.02;;;;;;;31.88;38.92;100013.41;10273537;28;21541;-74
2021/06/17 09:32:55;;;;;;;9.20;8.30;;;;;;;32.06;39.09;100012.03;10270367;28;20961;-75
2021/06/17 09:38:00;;;;;;;10.23;7.50;;;;;;;32.56;37.13;100009.56;10265463;28;20236;-75
2021/06/17 09:43:20;;;;;;;9.15;7.82;;;;;;;32.63;36.52;100015.66;10291201;28;20244;-75
2021/06/17 09:48:45;;;;;;;8.65;7.25;;;;;;;32.57;36.65;100005.66;10300941;28;20248;-75
2021/06/17 09:53:48;;;;;;;7.63;7.03;;;;;;;32.81;36.43;100006.75;10292239;28;20328;-74
2021/06/17 09:58:52;;;;;;;7.43;6.68;;;;;;;33.15;34.63;99994.16;10302932;28;20732;-75
2021/06/17 10:04:03;;;;;;;7.65;5.32;;;;;;;33.23;32.26;99997.19;10299253;28;20245;-75
2021/06/17 10:09:09;;;;;;;7.25;4.68;;;;;;;33.04;30.16;99985.00;10305975;28;20242;-74
2021/06/17 10:14:14;;;;;;;6.40;5.45;;;;;;;33.45;29.31;99991.22;10289737;28;20233;-75
2021/06/17 10:19:19;;;;;;;5.90;5.35;;;;;;;32.92;28.56;100002.00;10271884;28;20272;-75
2021/06/17 10:24:24;;;;;;;5.90;4.90;;;;;;;32.86;29.32;99986.47;10271942;28;20264;-75
2021/06/17 10:29:40;;;;;;;4.95;4.47;;;;;;;33.18;28.34;99986.06;10273187;28;20247;-75
2021/06/17 10:34:53;;;;;;;5.68;4.50;;;;;;;33.32;29.27;99983.50;10272173;28;20243;-76
2021/06/17 10:40:03;;;;;;;5.15;4.65;;;;;;;33.86;27.96;99965.94;10308624;28;20252;-76
2021/06/17 10:45:10;;;;;;;6.85;5.05;;;;;;;34.16;27.63;99978.81;10307427;28;20241;-76
2021/06/17 10:50:16;;;;;;;6.07;4.85;;;;;;;34.30;26.66;99973.38;10304862;28;21563;-76
2021/06/17 10:55:20;;;;;;;6.47;4.55;;;;;;;34.32;27.26;99973.94;10303456;28;20231;-76
2021/06/17 11:00:46;;;;;;;7.10;4.70;;;;;;;34.59;26.84;99967.03;10301551;28;20736;-76
2021/06/17 11:05:53;;;;;;;5.75;4.43;;;;;;;34.28;26.91;99949.72;10302086;28;20243;-77
2021/06/17 11:11:01;;;;;;;5.45;5.00;;;;;;;34.56;27.01;99957.28;10298786;28;20625;-75
2021/06/17 11:16:06;;;;;;;4.82;4.35;;;;;;;34.79;26.45;99961.19;10297972;28;20232;-76
2021/06/17 11:21:38;;;;;;;5.15;4.65;;;;;;;35.11;26.10;99954.16;10300892;28;20232;-76
2021/06/17 11:26:44;;;;;;;5.15;4.65;;;;;;;35.60;25.99;99960.47;10300084;28;20804;-75
2021/06/17 11:32:24;;;;;;;5.20;4.80;;;;;;;35.32;26.51;99956.66;10300623;28;20322;-75
2021/06/17 11:37:33;;;;;;;5.18;4.68;;;;;;;35.24;26.51;99955.38;10304957;28;20243;-76
2021/06/17 11:42:36;;;;;;;4.80;4.40;;;;;;;35.04;25.55;99976.00;10303159;28;20236;-75
2021/06/17 11:47:48;;;;;;;5.03;4.53;;;;;;;35.06;25.87;99960.63;10308559;28;20239;-77
2021/06/17 11:52:52;;;;;;;6.10;5.18;;;;;;;34.90;25.75;99961.09;10316235;28;20365;-77
2021/06/17 11:57:55;;;;;;;5.40;4.63;;;;;;;35.68;25.63;99959.78;10316043;28;20224;-77
2021/06/17 12:02:59;;;;;;;5.40;4.90;;;;;;;35.86;25.47;99952.53;10309443;28;20239;-76
2021/06/17 12:08:04;;;;;;;5.57;5.07;;;;;;;36.33;25.50;99945.84;10311103;28;20228;-76
2021/06/17 12:13:10;;;;;;;6.05;4.75;;;;;;;36.78;24.66;99954.56;10307403;28;20257;-77
2021/06/17 12:18:16;;;;;;;5.05;4.65;;;;;;;36.71;25.05;99956.91;10304501;28;20240;-77
2021/06/17 12:23:22;;;;;;;4.95;4.40;;;;;;;36.50;24.48;99938.88;10307917;28;20244;-76
2021/06/17 12:28:26;;;;;;;5.40;4.47;;;;;;;36.31;24.31;99942.53;10309607;28;20245;-76
2021/06/17 12:33:32;;;;;;;4.90;4.40;;;;;;;36.49;23.66;99938.06;10302856;28;20263;-76
2021/06/17 12:38:37;;;;;;;4.75;4.35;;;;;;;36.42;23.70;99931.19;10307225;28;20312;-75
2021/06/17 12:43:44;;;;;;;5.28;4.60;;;;;;;36.24;25.06;99942.13;10308517;28;20233;-76
2021/06/17 12:54:21;;;;;;;5.22;4.72;;;;;;;37.29;23.55;99933.09;10306492;28;20376;-77
2021/06/17 12:59:36;;;;;;;7.60;4.55;;;;;;;36.71;23.82;99925.31;10303914;28;20240;-76
2021/06/17 13:04:40;;;;;;;5.95;5.35;;;;;;;36.70;23.78;99918.06;10297974;28;20314;-76
2021/06/17 13:09:43;;;;;;;5.72;4.95;;;;;;;37.16;23.86;99919.91;10299323;28;20248;-77
2021/06/17 13:15:18;;;;;;;5.10;4.55;;;;;;;36.96;23.86;99922.00;10302371;28;20622;-76
2021/06/17 13:20:32;;;;;;;6.88;5.03;;;;;;;36.65;24.92;99918.19;10303390;28;20247;-76
2021/06/17 13:25:36;;;;;;;6.38;5.15;;;;;;;37.94;24.30;99909.41;10300718;28;20238;-77
2021/06/17 13:30:39;;;;;;;5.55;5.03;;;;;;;37.68;24.76;99920.44;10299683;28;20274;-76
2021/06/17 13:35:45;;;;;;;5.82;5.32;;;;;;;38.09;23.52;99911.00;10299290;28;21421;-76
2021/06/17 13:40:48;;;;;;;6.70;4.88;;;;;;;38.62;23.30;99906.50;10301197;28;21947;-76
2021/06/17 13:45:51;;;;;;;5.50;5.00;;;;;;;38.85;23.61;99912.88;10307266;28;20701;-76
2021/06/17 13:50:56;;;;;;;5.85;5.22;;;;;;;39.04;23.45;99895.78;10314483;28;20309;-77
2021/06/17 13:55:59;;;;;;;6.25;5.57;;;;;;;38.42;22.92;99902.28;10314071;28;20247;-77
2021/06/17 14:01:04;;;;;;;6.88;5.70;;;;;;;38.07;24.23;99894.50;10310366;28;20236;-76
2021/06/17 14:06:08;;;;;;;6.13;5.00;;;;;;;38.58;24.33;99895.13;10303572;28;20345;-76
2021/06/17 14:11:11;;;;;;;5.78;5.38;;;;;;;38.10;23.89;99899.50;10313563;28;20239;-76
2021/06/17 14:16:14;;;;;;;5.70;4.93;;;;;;;38.73;24.02;99903.09;10313364;28;20618;-76
2021/06/17 14:21:18;;;;;;;5.05;4.65;;;;;;;39.31;24.28;99900.25;10306259;28;20255;-77
2021/06/17 14:26:24;;;;;;;5.07;4.60;;;;;;;38.16;23.30;99903.00;10304089;28;20270;-76
2021/06/17 14:31:27;;;;;;;5.05;4.63;;;;;;;38.02;23.90;99903.03;10304723;28;20753;-76
2021/06/17 14:36:32;;;;;;;5.88;4.35;;;;;;;38.35;24.12;99894.34;10304015;28;20249;-75
2021/06/17 14:41:36;;;;;;;5.18;4.68;;;;;;;38.42;24.05;99891.88;10303236;28;20244;-77
2021/06/17 14:46:40;;;;;;;4.55;4.15;;;;;;;37.91;23.20;99907.25;10305135;28;20238;-75
2021/06/17 14:51:44;;;;;;;4.50;4.03;;;;;;;37.30;23.60;99905.91;10311831;28;20240;-76
2021/06/17 14:56:47;;;;;;;5.32;4.25;;;;;;;36.41;23.47;99898.78;10306620;28;20675;-75
2021/06/17 15:01:52;;;;;;;4.45;4.05;;;;;;;37.95;22.75;99896.22;10310444;28;20750;-76
2021/06/17 15:06:56;;;;;;;4.65;4.22;;;;;;;38.61;22.55;99893.63;10313020;28;20274;-76
2021/06/17 15:11:59;;;;;;;4.50;4.10;;;;;;;39.12;23.08;99898.59;10307385;28;20236;-75
2021/06/17 15:17:03;;;;;;;4.60;4.28;;;;;;;39.38;23.66;99898.63;10301364;28;20273;-76
2021/06/17 15:22:08;;;;;;;5.05;4.38;;;;;;;39.65;22.20;99896.63;10299435;28;20236;-76
2021/06/17 15:27:11;;;;;;;4.30;3.95;;;;;;;39.04;22.47;99896.59;10218141;28;20234;-76
2021/06/17 15:32:14;;;;;;;5.28;4.13;;;;;;;39.06;22.74;99883.06;10300521;28;20849;-76
2021/06/17 15:37:20;;;;;;;4.43;4.05;;;;;;;39.31;21.91;99886.22;10275662;28;20701;-76
2021/06/17 15:42:23;;;;;;;4.40;3.88;;;;;;;37.67;22.37;99886.00;10288436;28;20246;-76
2021/06/17 15:47:26;;;;;;;5.07;4.15;;;;;;;38.63;22.45;99869.72;10289583;28;20243;-76
2021/06/17 15:52:30;;;;;;;4.90;3.92;;;;;;;39.36;21.28;99872.88;10309078;28;20260;-76
2021/06/17 15:57:33;;;;;;;4.50;3.88;;;;;;;39.49;21.14;99875.81;10309284;28;20611;-76
2021/06/17 16:02:37;;;;;;;4.82;3.85;;;;;;;39.96;21.51;99864.69;10310722;28;21074;-76
2021/06/17 16:07:41;;;;;;;4.07;3.70;;;;;;;40.61;20.73;99874.75;10308218;28;20228;-76
2021/06/17 16:12:44;;;;;;;5.32;3.90;;;;;;;39.82;20.65;99864.88;10308380;28;20250;-76
2021/06/17 16:17:49;;;;;;;5.38;3.65;;;;;;;39.98;21.83;99876.44;10307693;28;20261;-76
2021/06/17 16:22:55;;;;;;;4.90;3.90;;;;;;;40.25;20.68;99867.59;10293514;28;20247;-76
2021/06/17 16:27:59;;;;;;;5.28;3.55;;;;;;;41.19;20.19;99861.78;10308971;28;20242;-76
2021/06/17 16:33:04;;;;;;;4.93;3.67;;;;;;;43.85;18.45;99862.19;10299044;28;20624;-77
2021/06/17 16:38:09;;;;;;;5.75;3.90;;;;;;;45.26;16.68;99862.47;10265868;28;20221;-76
2021/06/17 16:43:12;;;;;;;7.22;4.00;;;;;;;45.44;17.08;99857.16;10268977;28;20253;-75
2021/06/17 16:48:15;;;;;;;4.93;3.45;;;;;;;46.64;15.78;99854.13;10263449;28;20750;-76
2021/06/17 16:53:19;;;;;;;5.60;4.10;;;;;;;46.73;16.38;99851.81;10266964;28;20249;-76
2021/06/17 16:58:25;;;;;;;4.07;3.63;;;;;;;46.68;16.59;99852.13;10265447;28;20249;-76
2021/06/17 17:03:27;;;;;;;5.93;3.50;;;;;;;47.17;16.81;99856.91;10269850;28;20233;-76
2021/06/17 17:08:32;;;;;;;6.60;3.90;;;;;;;46.55;16.96;99860.09;10268631;28;20261;-74
2021/06/17 17:13:35;;;;;;;4.20;3.60;;;;;;;46.08;18.00;99855.59;10265100;28;20246;-75
2021/06/17 17:18:38;;;;;;;5.32;4.05;;;;;;;46.09;17.87;99871.41;10263170;28;20256;-75
2021/06/17 17:23:42;;;;;;;4.95;4.07;;;;;;;45.61;18.43;99859.53;10277462;28;20238;-75
2021/06/17 17:28:46;;;;;;;7.03;4.22;;;;;;;44.92;18.58;99868.56;10302680;28;20248;-74
2021/06/17 17:33:49;;;;;;;4.72;3.80;;;;;;;44.45;19.05;99869.47;10304279;28;20243;-75
2021/06/17 17:38:54;;;;;;;5.30;4.57;;;;;;;44.16;19.05;99873.56;10303448;28;20494;-74
2021/06/17 17:43:57;;;;;;;4.32;3.90;;;;;;;43.06;19.88;99869.19;10307446;28;20243;-75
2021/06/17 17:49:00;;;;;;;4.80;4.38;;;;;;;39.77;23.17;99877.16;10306921;28;20236;-75
2021/06/17 17:54:05;;;;;;;4.47;4.18;;;;;;;37.20;26.36;99885.38;10310477;28;20240;-75
2021/06/17 17:59:08;;;;;;;5.13;4.28;;;;;;;35.84;27.12;99896.94;10311877;28;20236;-75
2021/06/17 18:04:11;;;;;;;4.85;4.45;;;;;;;35.01;29.29;99885.34;10307597;28;20240;-75
2021/06/17 18:09:17;;;;;;;6.75;5.30;;;;;;;34.20;30.30;99893.53;10287975;28;20249;-75
2021/06/17 18:14:21;;;;;;;7.07;4.63;;;;;;;33.45;31.78;99887.41;10270297;28;20253;-74
2021/06/17 18:19:24;;;;;;;5.20;4.72;;;;;;;32.93;32.78;99895.19;10304628;28;20625;-75
2021/06/17 18:24:29;;;;;;;5.63;5.00;;;;;;;32.66;33.78;99898.34;10305846;28;20249;-75
2021/06/17 18:29:32;;;;;;;5.43;4.93;;;;;;;32.32;33.92;99901.75;10306323;28;20237;-74
2021/06/17 18:34:36;;;;;;;12.10;8.98;;;;;;;32.13;34.77;99909.81;10283116;28;20237;-74
2021/06/17 18:39:40;;;;;;;6.85;6.22;;;;;;;31.81;34.90;99909.28;10261768;28;20235;-74
2021/06/17 18:44:44;;;;;;;6.38;5.70;;;;;;;31.57;36.89;99910.63;10261036;28;20268;-74
2021/06/17 18:49:49;;;;;;;6.00;5.40;;;;;;;31.37;37.48;99910.56;10261645;28;20793;-74
2021/06/17 18:54:54;;;;;;;5.93;5.32;;;;;;;31.18;37.42;99914.97;10260228;28;20745;-75
2021/06/17 18:59:57;;;;;;;5.95;5.35;;;;;;;31.04;37.40;99917.38;10265049;28;20925;-75
2021/06/17 19:05:00;;;;;;;6.15;5.55;;;;;;;30.79;37.48;99915.34;10276331;28;20233;-75
2021/06/17 19:10:05;;;;;;;6.10;5.50;;;;;;;30.49;38.01;99914.06;10221458;28;20252;-75
2021/06/17 19:15:08;;;;;;;7.30;6.07;;;;;;;30.32;37.53;99914.22;10219616;28;20241;-76
2021/06/17 19:20:15;;;;;;;7.13;6.18;;;;;;;30.19;38.13;99921.06;10291073;28;20236;-75
2021/06/17 19:25:22;;;;;;;7.65;6.72;;;;;;;30.10;38.78;99930.94;10298882;28;20263;-75
2021/06/17 19:30:26;;;;;;;7.05;6.38;;;;;;;29.95;38.82;99928.91;10302800;28;20249;-75
2021/06/17 19:35:29;;;;;;;6.78;6.18;;;;;;;29.75;39.00;99928.69;10303687;28;20251;-75
2021/06/17 19:40:35;;;;;;;6.47;5.82;;;;;;;29.46;39.41;99931.72;10306625;28;20232;-76
2021/06/17 19:45:38;;;;;;;7.43;6.00;;;;;;;29.30;39.36;99927.94;10306487;28;20242;-76
2021/06/17 19:50:41;;;;;;;6.65;5.93;;;;;;;29.20;39.82;99935.28;10303923;28;20235;-76
2021/06/17 19:56:02;;;;;;;6.20;5.65;;;;;;;29.10;40.12;99939.63;10305914;28;20232;-76
2021/06/17 20:01:07;;;;;;;7.50;6.78;;;;;;;28.84;40.43;99941.19;10302754;28;20228;-76
2021/06/17 20:06:13;;;;;;;8.60;7.03;;;;;;;28.68;40.25;99947.59;10301524;28;20601;-75
2021/06/17 20:11:17;;;;;;;6.93;6.28;;;;;;;28.57;40.20;99951.31;10287781;28;20233;-75
2021/06/17 20:16:20;;;;;;;7.30;6.18;;;;;;;28.40;40.97;99957.66;10295848;28;20254;-75
2021/06/17 20:21:23;;;;;;;6.97;6.22;;;;;;;28.27;41.01;99964.34;10293607;28;20238;-74
2021/06/17 20:26:28;;;;;;;8.02;6.35;;;;;;;28.34;40.82;99963.38;10301339;28;20243;-75
2021/06/17 20:31:31;;;;;;;9.45;7.40;;;;;;;28.34;41.13;99968.88;10276795;28;20234;-75
2021/06/17 20:36:34;;;;;;;7.80;6.95;;;;;;;28.22;41.19;99967.06;10276015;28;20245;-76
2021/06/17 20:41:39;;;;;;;10.73;7.18;;;;;;;28.13;41.77;99964.97;10281547;28;21538;-74
2021/06/17 20:46:42;;;;;;;10.98;6.70;;;;;;;28.04;41.65;99976.41;10283540;28;20233;-74
2021/06/17 20:51:45;;;;;;;8.27;6.45;;;;;;;27.90;42.05;99980.56;10295610;28;20260;-75
2021/06/17 20:56:50;;;;;;;7.03;6.22;;;;;;;27.76;42.61;99985.56;10307479;28;20732;-76
2021/06/17 21:01:53;;;;;;;7.18;6.28;;;;;;;27.71;42.59;99998.41;10319384;28;20256;-76
2021/06/17 21:06:56;;;;;;;7.05;6.35;;;;;;;27.66;42.84;100003.84;10316686;28;20234;-76
2021/06/17 21:12:01;;;;;;;11.02;6.70;;;;;;;27.56;43.88;100027.38;10316404;28;20236;-75
2021/06/17 21:17:04;;;;;;;7.38;6.68;;;;;;;27.04;44.84;100037.53;10314929;28;20236;-76
2021/06/17 21:22:07;;;;;;;7.15;6.45;;;;;;;26.92;45.27;100037.56;10328113;28;20233;-74
2021/06/17 21:27:11;;;;;;;7.72;7.00;;;;;;;27.04;45.32;100032.03;10316411;28;20283;-75
2021/06/17 21:32:14;;;;;;;9.02;7.47;;;;;;;27.03;44.70;100042.22;10316177;28;20237;-76
2021/06/17 21:37:17;;;;;;;10.15;7.07;;;;;;;27.12;44.69;100048.19;10299085;28;20230;-76
2021/06/17 21:42:22;;;;;;;8.50;7.43;;;;;;;26.90;44.61;100048.81;10282271;28;20272;-76
2021/06/17 21:47:25;;;;;;;10.68;8.13;;;;;;;27.05;44.10;100051.09;10273139;28;20245;-75
2021/06/17 21:52:28;;;;;;;8.48;7.63;;;;;;;26.62;45.68;100051.41;10273386;28;20284;-76
2021/06/17 21:57:32;;;;;;;9.10;7.78;;;;;;;26.77;45.58;100053.69;10272216;28;20276;-75
2021/06/17 22:02:35;;;;;;;9.30;8.05;;;;;;;26.74;46.77;100061.38;10273205;28;20244;-75
2021/06/17 22:07:38;;;;;;;9.82;8.32;;;;;;;26.87;47.30;100078.78;10273741;28;20617;-75
2021/06/17 22:12:43;;;;;;;12.15;8.57;;;;;;;26.81;47.82;100080.53;10276485;28;20327;-75
2021/06/17 22:17:47;;;;;;;15.43;9.32;;;;;;;26.66;48.54;100083.78;10274792;28;20240;-76
2021/06/17 22:22:50;;;;;;;10.80;7.97;;;;;;;26.49;49.04;100089.13;10276129;28;20233;-75
2021/06/17 22:27:54;;;;;;;10.38;9.07;;;;;;;26.18;49.97;100090.22;10272967;28;20615;-76
2021/06/17 22:32:57;;;;;;;13.40;8.85;;;;;;;25.56;51.71;100104.16;10273398;28;20241;-75
2021/06/17 22:38:01;;;;;;;12.63;8.75;;;;;;;25.39;52.26;100106.66;10270604;28;20626;-75
2021/06/17 22:43:05;;;;;;;9.98;8.45;;;;;;;25.29;52.35;100109.13;10278472;28;20242;-75
2021/06/17 22:48:09;;;;;;;12.05;8.60;;;;;;;24.91;53.52;100125.75;10277454;28;20256;-75
2021/06/17 22:53:12;;;;;;;10.27;7.78;;;;;;;25.24;53.13;100119.94;10271691;28;20237;-75
2021/06/17 22:58:16;;;;;;;14.95;8.98;;;;;;;25.05;53.49;100121.84;10263277;28;20710;-75
2021/06/17 23:03:23;;;;;;;10.50;9.40;;;;;;;25.03;53.91;100128.63;10264950;28;20625;-75
2021/06/17 23:08:26;;;;;;;11.02;9.00;;;;;;;25.10;53.47;100129.41;10266424;28;20230;-75
2021/06/17 23:13:31;;;;;;;11.88;8.52;;;;;;;25.02;53.82;100135.16;10265402;28;20241;-75
2021/06/17 23:18:34;;;;;;;11.43;8.23;;;;;;;24.81;54.24;100144.63;10261359;28;20237;-76
2021/06/17 23:23:37;;;;;;;16.48;10.15;;;;;;;24.56;55.02;100163.84;10262805;28;20712;-75
2021/06/17 23:28:42;;;;;;;10.55;9.35;;;;;;;24.47;55.51;100164.09;10262622;28;20254;-74
2021/06/17 23:33:45;;;;;;;13.20;9.65;;;;;;;24.36;55.89;100172.19;10265743;28;20240;-74
2021/06/17 23:38:48;;;;;;;13.48;9.70;;;;;;;24.28;55.88;100170.53;10265196;28;20359;-75
2021/06/17 23:43:52;;;;;;;12.40;8.85;;;;;;;24.19;56.36;100171.84;10266634;28;20230;-75